Time;durP1;ratioP1;P1;durP2;ratioP2;P2;SDS_P1;SDS_P2;PMS_P1;PMS_P2;Temp;Humidity;BMP_temperature;BMP_pressure;BME280_temperature;BME280_humidity;BME280_pressure;Samples;Min_cycle;Max_cycle;Signal;HPM_P1;HPM_P2
2022/08/25 04:02:32;;;;;;;0.40;0.40;;;17.90;99.90;;;;;;4957833;23;20506;-72
2022/08/25 04:04:59;;;;;;;0.33;0.33;;;17.90;99.90;;;;;;4931842;29;21037;-72
2022/08/25 04:07:26;;;;;;;0.23;0.23;;;17.90;99.90;;;;;;4930538;29;20502;-72
2022/08/25 04:09:55;;;;;;;0.30;0.30;;;17.80;99.90;;;;;;4930762;29;20479;-72
2022/08/25 04:12:21;;;;;;;0.40;0.40;;;17.80;99.90;;;;;;4916206;29;20554;-72
2022/08/25 04:14:48;;;;;;;0.30;0.30;;;17.80;99.90;;;;;;4922628;29;20472;-72
2022/08/25 04:17:16;;;;;;;0.30;0.30;;;17.80;99.90;;;;;;4929545;29;20481;-71
2022/08/25 04:19:44;;;;;;;0.50;0.50;;;17.80;99.90;;;;;;4913826;29;20468;-71
2022/08/25 04:22:11;;;;;;;0.47;0.47;;;17.80;99.90;;;;;;4917729;29;20535;-71
2022/08/25 04:24:37;;;;;;;0.20;0.20;;;17.70;99.90;;;;;;4927235;29;21611;-71
2022/08/25 04:27:04;;;;;;;0.40;0.40;;;17.70;99.90;;;;;;4912518;29;20489;-71
2022/08/25 04:29:31;;;;;;;0.30;0.30;;;17.80;99.90;;;;;;4928357;29;20478;-71
2022/08/25 04:31:58;;;;;;;0.20;0.20;;;17.70;99.90;;;;;;4911330;29;20496;-71
2022/08/25 04:34:26;;;;;;;0.30;0.30;;;17.70;99.90;;;;;;4917337;29;20501;-71
2022/08/25 04:36:55;;;;;;;0.20;0.20;;;17.70;99.90;;;;;;4919367;29;20467;-71
2022/08/25 04:39:22;;;;;;;0.30;0.30;;;17.80;99.90;;;;;;4913160;29;20479;-71
2022/08/25 04:41:49;;;;;;;0.23;0.23;;;17.70;99.90;;;;;;4917328;29;20525;-71
2022/08/25 04:44:16;;;;;;;0.10;0.10;;;17.70;99.90;;;;;;4905203;29;20479;-71
2022/08/25 04:46:43;;;;;;;0.20;0.20;;;17.70;99.90;;;;;;4911340;29;20993;-71
2022/08/25 04:49:10;;;;;;;0.20;0.20;;;17.70;99.90;;;;;;4920144;29;20483;-71
2022/08/25 04:51:39;;;;;;;0.30;0.30;;;17.80;99.90;;;;;;4912133;29;20551;-71
2022/08/25 04:54:10;;;;;;;0.20;0.20;;;17.80;99.90;;;;;;4907625;29;20820;-71
2022/08/25 04:56:40;;;;;;;0.57;0.57;;;17.80;99.90;;;;;;4906204;29;20460;-71
2022/08/25 04:59:09;;;;;;;1.80;1.70;;;17.80;99.90;;;;;;4907431;29;20464;-71
2022/08/25 05:01:36;;;;;;;0.17;0.17;;;17.80;99.90;;;;;;4909699;29;20495;-71
2022/08/25 05:04:06;;;;;;;0.53;0.53;;;17.80;99.90;;;;;;4911031;29;20930;-71
2022/08/25 05:06:33;;;;;;;0.30;0.30;;;17.80;99.90;;;;;;4902007;29;20496;-71
2022/08/25 05:09:01;;;;;;;0.50;0.50;;;17.80;99.90;;;;;;4907846;29;20477;-71
2022/08/25 05:11:29;;;;;;;0.93;0.20;;;17.80;99.90;;;;;;4919054;29;20556;-71
2022/08/25 05:13:57;;;;;;;0.73;0.50;;;17.80;99.90;;;;;;4918489;29;20478;-71
2022/08/25 05:16:25;;;;;;;0.83;0.83;;;17.80;99.90;;;;;;4924641;29;20467;-71
2022/08/25 05:18:52;;;;;;;0.60;0.60;;;17.80;99.90;;;;;;4924512;29;20510;-71
2022/08/25 05:21:22;;;;;;;0.40;0.40;;;17.80;99.90;;;;;;4915837;29;20495;-71
2022/08/25 05:23:49;;;;;;;0.10;0.10;;;17.80;99.90;;;;;;4925248;29;20467;-71
2022/08/25 05:26:18;;;;;;;0.30;0.30;;;17.80;99.90;;;;;;4932216;29;20567;-72
2022/08/25 05:28:46;;;;;;;0.20;0.20;;;17.80;99.90;;;;;;4917208;29;20477;-71
2022/08/25 05:31:14;;;;;;;0.20;0.20;;;17.80;99.90;;;;;;4911040;29;20499;-72
2022/08/25 05:33:42;;;;;;;0.20;0.20;;;17.90;99.90;;;;;;4913446;29;20968;-72
2022/08/25 05:36:10;;;;;;;0.30;0.30;;;17.90;99.90;;;;;;4908313;29;20468;-71
2022/08/25 05:38:38;;;;;;;0.20;0.20;;;17.90;99.90;;;;;;4916758;29;20488;-71
2022/08/25 05:41:09;;;;;;;0.20;0.20;;;18.00;99.90;;;;;;4911007;29;20531;-71
2022/08/25 05:43:36;;;;;;;0.20;0.20;;;18.00;99.90;;;;;;4907762;29;20520;-71
2022/08/25 05:46:05;;;;;;;0.30;0.30;;;18.00;99.90;;;;;;4901912;29;20478;-72
2022/08/25 05:48:31;;;;;;;0.43;0.43;;;18.10;99.90;;;;;;4905132;29;20481;-72
2022/08/25 05:51:00;;;;;;;0.20;0.20;;;18.10;99.90;;;;;;4915126;29;20496;-72
2022/08/25 05:53:28;;;;;;;0.43;0.43;;;18.10;99.90;;;;;;4915548;29;20480;-72
2022/08/25 05:55:58;;;;;;;0.60;0.60;;;18.20;99.90;;;;;;4912552;29;20477;-72
2022/08/25 05:58:27;;;;;;;0.27;0.27;;;18.20;99.90;;;;;;4914557;29;20571;-71
2022/08/25 06:00:55;;;;;;;0.20;0.20;;;18.20;99.90;;;;;;4914340;29;20642;-69
2022/08/25 06:03:22;;;;;;;0.10;0.10;;;18.20;99.90;;;;;;4913876;29;20481;-71
2022/08/25 06:05:49;;;;;;;0.20;0.20;;;18.20;99.90;;;;;;4915299;29;20466;-70
2022/08/25 06:08:15;;;;;;;0.20;0.20;;;18.30;99.90;;;;;;4915358;29;20495;-71
2022/08/25 06:10:42;;;;;;;0.20;0.20;;;18.30;99.90;;;;;;4935557;29;20493;-72
2022/08/25 06:13:09;;;;;;;0.30;0.30;;;18.30;99.90;;;;;;4918195;29;20482;-72
2022/08/25 06:15:36;;;;;;;0.43;0.43;;;18.40;99.90;;;;;;4897406;29;20472;-72
2022/08/25 06:18:02;;;;;;;0.50;0.50;;;18.40;99.90;;;;;;4897059;29;20470;-72
2022/08/25 06:20:31;;;;;;;0.30;0.30;;;18.40;99.90;;;;;;4916515;29;20473;-72
2022/08/25 06:23:00;;;;;;;0.30;0.30;;;18.50;99.90;;;;;;4916128;29;20469;-71
2022/08/25 06:25:27;;;;;;;0.50;0.50;;;18.50;99.90;;;;;;4916310;29;20814;-73
2022/08/25 06:27:54;;;;;;;0.20;0.20;;;18.50;99.90;;;;;;4920593;29;20517;-72
2022/08/25 06:30:23;;;;;;;0.30;0.30;;;18.50;99.90;;;;;;4935474;29;20472;-72
2022/08/25 06:32:50;;;;;;;0.40;0.40;;;18.50;99.90;;;;;;4934834;29;20472;-71
2022/08/25 06:35:19;;;;;;;1.43;0.83;;;18.60;99.90;;;;;;4931216;29;20469;-71
2022/08/25 06:37:47;;;;;;;0.10;0.10;;;18.60;99.90;;;;;;4915729;29;20474;-72
2022/08/25 06:40:16;;;;;;;0.67;0.30;;;18.60;99.90;;;;;;4915806;29;20476;-72
2022/08/25 06:42:42;;;;;;;0.23;0.23;;;18.60;99.90;;;;;;4916076;29;20501;-72
2022/08/25 06:45:10;;;;;;;1.00;1.00;;;18.70;99.90;;;;;;4915715;29;20943;-71
2022/08/25 06:47:36;;;;;;;0.67;0.67;;;18.70;99.90;;;;;;4916196;29;20488;-72
2022/08/25 06:50:04;;;;;;;0.90;0.90;;;18.70;99.90;;;;;;4902200;29;20477;-71
2022/08/25 06:52:30;;;;;;;0.47;0.40;;;18.80;99.90;;;;;;4908658;29;20488;-71
2022/08/25 06:54:59;;;;;;;0.20;0.20;;;18.80;99.90;;;;;;4914031;29;20523;-71
2022/08/25 06:57:25;;;;;;;1.90;0.60;;;18.90;99.90;;;;;;4916318;29;20937;-73
2022/08/25 06:59:52;;;;;;;0.70;0.70;;;18.90;99.90;;;;;;4913759;29;20481;-71
2022/08/25 07:02:19;;;;;;;0.60;0.60;;;18.90;99.90;;;;;;4907716;29;20501;-71
2022/08/25 07:04:46;;;;;;;0.20;0.20;;;18.90;99.90;;;;;;4911834;29;20560;-71
2022/08/25 07:07:12;;;;;;;0.40;0.40;;;19.00;99.90;;;;;;4910082;29;20490;-71
2022/08/25 07:09:39;;;;;;;0.30;0.30;;;19.00;99.90;;;;;;4920558;29;20470;-72
2022/08/25 07:12:08;;;;;;;0.40;0.30;;;19.00;99.90;;;;;;4912645;29;20928;-72
2022/08/25 07:14:35;;;;;;;0.77;0.77;;;19.00;99.90;;;;;;4903705;29;20485;-70
2022/08/25 07:17:02;;;;;;;0.40;0.40;;;19.10;99.90;;;;;;4905414;29;20507;-71
2022/08/25 07:19:29;;;;;;;0.53;0.47;;;19.20;99.90;;;;;;4909722;29;20477;-71
2022/08/25 07:21:56;;;;;;;0.50;0.50;;;19.20;99.90;;;;;;4906436;29;20525;-71
2022/08/25 07:24:23;;;;;;;0.60;0.60;;;19.20;99.90;;;;;;4918498;29;20477;-70
2022/08/25 07:26:51;;;;;;;0.60;0.60;;;19.30;99.90;;;;;;4915310;29;20498;-70
2022/08/25 07:29:22;;;;;;;0.30;0.30;;;19.40;99.90;;;;;;4906075;29;20474;-70
2022/08/25 07:31:48;;;;;;;0.40;0.30;;;19.50;99.90;;;;;;4911564;29;20493;-70
2022/08/25 07:37:02;;;;;;;0.50;0.50;;;19.60;99.90;;;;;;4927031;29;20495;-71
2022/08/25 07:39:29;;;;;;;0.50;0.50;;;19.60;99.90;;;;;;4934444;29;20601;-69
2022/08/25 07:41:55;;;;;;;0.60;0.60;;;19.60;99.90;;;;;;4909601;29;20500;-70
2022/08/25 07:44:24;;;;;;;0.20;0.20;;;19.70;99.90;;;;;;4911230;29;20939;-71
2022/08/25 07:46:52;;;;;;;0.20;0.20;;;19.70;99.90;;;;;;4907973;29;20486;-69
2022/08/25 07:49:19;;;;;;;0.40;0.40;;;19.70;99.90;;;;;;4916086;29;20479;-69
2022/08/25 07:51:46;;;;;;;0.73;0.73;;;19.80;99.90;;;;;;4920793;29;21196;-71
2022/08/25 07:54:13;;;;;;;0.20;0.20;;;19.80;99.90;;;;;;4919920;29;20499;-70
2022/08/25 07:56:41;;;;;;;0.60;0.60;;;19.90;99.90;;;;;;4905610;29;20469;-70
2022/08/25 07:59:09;;;;;;;0.30;0.30;;;19.90;99.90;;;;;;4922272;29;20473;-71
2022/08/25 08:01:37;;;;;;;0.57;0.57;;;19.90;99.90;;;;;;4905379;29;20498;-70
2022/08/25 08:04:04;;;;;;;0.40;0.40;;;19.90;99.90;;;;;;4912372;29;20503;-70
2022/08/25 08:06:31;;;;;;;0.67;0.30;;;20.00;99.90;;;;;;4907253;29;20612;-69
2022/08/25 08:08:59;;;;;;;0.43;0.43;;;20.10;99.90;;;;;;4905102;29;20785;-70
2022/08/25 08:11:29;;;;;;;0.70;0.70;;;20.10;99.90;;;;;;4910011;29;20499;-71
2022/08/25 08:13:57;;;;;;;0.50;0.50;;;20.10;99.90;;;;;;4909856;29;20478;-69
2022/08/25 08:16:26;;;;;;;0.40;0.40;;;20.20;99.90;;;;;;4910684;29;20474;-70
2022/08/25 08:18:55;;;;;;;0.70;0.70;;;20.20;99.90;;;;;;4918439;29;20467;-69
2022/08/25 08:21:24;;;;;;;1.03;1.03;;;20.20;99.90;;;;;;4919062;29;20849;-70
2022/08/25 08:23:53;;;;;;;0.30;0.30;;;20.30;99.90;;;;;;4915254;29;20478;-69
2022/08/25 08:26:20;;;;;;;0.90;0.90;;;20.30;99.90;;;;;;4900900;29;20857;-69
2022/08/25 08:28:47;;;;;;;0.53;0.53;;;20.40;99.90;;;;;;4914580;29;20497;-70
2022/08/25 08:31:18;;;;;;;2.30;0.73;;;20.30;99.90;;;;;;4920300;29;20486;-70
2022/08/25 08:33:45;;;;;;;1.23;0.70;;;20.40;99.90;;;;;;4909014;29;20506;-69
2022/08/25 08:36:13;;;;;;;0.30;0.30;;;20.40;99.90;;;;;;4920646;29;20486;-70
2022/08/25 08:38:42;;;;;;;0.40;0.40;;;20.50;99.90;;;;;;4912437;29;20470;-70
2022/08/25 08:44:12;;;;;;;0.40;0.40;;;20.60;99.90;;;;;;4904789;29;20490;-70
2022/08/25 08:46:48;;;;;;;0.20;0.20;;;20.70;99.90;;;;;;4907372;29;21194;-70
2022/08/25 08:49:22;;;;;;;0.47;0.40;;;20.80;99.90;;;;;;4912419;29;20969;-70
2022/08/25 08:51:55;;;;;;;3.33;0.73;;;20.90;99.90;;;;;;4911875;29;20571;-70
2022/08/25 08:54:25;;;;;;;0.50;0.50;;;20.90;99.90;;;;;;4914624;29;22411;-70
2022/08/25 08:56:59;;;;;;;0.80;0.80;;;20.80;99.90;;;;;;4916440;29;20466;-70
2022/08/25 08:59:31;;;;;;;1.13;1.13;;;20.70;99.90;;;;;;4914328;29;20470;-70
2022/08/25 09:01:59;;;;;;;0.30;0.30;;;20.70;99.90;;;;;;4914752;29;20507;-70
2022/08/25 09:04:32;;;;;;;0.87;0.87;;;20.70;99.90;;;;;;4907399;29;20872;-69
2022/08/25 09:07:03;;;;;;;0.57;0.57;;;20.70;99.90;;;;;;4924819;29;20463;-69
2022/08/25 09:09:33;;;;;;;0.60;0.57;;;20.70;99.90;;;;;;4916581;29;20475;-69
2022/08/25 09:12:07;;;;;;;0.60;0.60;;;20.90;99.90;;;;;;4917258;29;20491;-69
2022/08/25 09:14:45;;;;;;;2.47;0.57;;;21.10;99.90;;;;;;4912771;29;20468;-69
2022/08/25 09:17:20;;;;;;;0.30;0.30;;;21.20;99.90;;;;;;4909479;29;20479;-69
2022/08/25 09:20:08;;;;;;;0.40;0.40;;;21.30;99.90;;;;;;4908430;29;20586;-69
2022/08/25 09:22:46;;;;;;;0.50;0.50;;;21.50;99.90;;;;;;4911063;29;20499;-70
2022/08/25 09:25:20;;;;;;;0.57;0.57;;;21.70;99.90;;;;;;4921186;29;20502;-69
2022/08/25 09:27:59;;;;;;;0.53;0.53;;;21.90;99.90;;;;;;4925419;29;20491;-69
2022/08/25 09:30:26;;;;;;;0.40;0.40;;;22.00;99.90;;;;;;4906642;29;20477;-70
2022/08/25 09:33:02;;;;;;;0.60;0.60;;;22.00;99.90;;;;;;4906224;29;20477;-71
2022/08/25 09:35:31;;;;;;;1.63;0.93;;;22.00;99.90;;;;;;4914490;29;20500;-70
2022/08/25 09:38:02;;;;;;;0.73;0.73;;;22.00;99.90;;;;;;4913264;29;20489;-70
2022/08/25 09:40:31;;;;;;;0.57;0.57;;;22.10;99.90;;;;;;4913181;29;21014;-70
2022/08/25 09:43:01;;;;;;;1.03;0.60;;;22.20;99.90;;;;;;4910388;29;20481;-70
2022/08/25 09:45:36;;;;;;;0.70;0.70;;;22.40;99.90;;;;;;4916718;29;20504;-70
2022/08/25 09:48:20;;;;;;;0.83;0.60;;;22.50;99.90;;;;;;4912992;29;20490;-70
2022/08/25 09:50:48;;;;;;;0.60;0.60;;;22.50;99.90;;;;;;4916723;29;20494;-69
2022/08/25 09:53:18;;;;;;;0.60;0.60;;;22.50;99.90;;;;;;4903970;29;20979;-71
2022/08/25 09:55:53;;;;;;;1.40;1.00;;;22.40;99.90;;;;;;4926421;29;20468;-69
2022/08/25 09:58:24;;;;;;;0.30;0.30;;;22.50;99.90;;;;;;4913709;29;20469;-70
2022/08/25 10:01:04;;;;;;;0.67;0.67;;;22.50;99.90;;;;;;4931641;29;20481;-70
2022/08/25 10:03:31;;;;;;;0.90;0.90;;;22.50;99.90;;;;;;4946544;28;20457;-70
2022/08/25 10:06:13;;;;;;;0.73;0.73;;;22.60;99.90;;;;;;4930184;29;20501;-70
2022/08/25 10:08:54;;;;;;;0.47;0.47;;;22.70;99.90;;;;;;4908906;29;20495;-70
2022/08/25 10:11:34;;;;;;;0.70;0.67;;;22.80;99.90;;;;;;4912454;29;20598;-70
2022/08/25 10:14:05;;;;;;;0.47;0.33;;;22.90;99.90;;;;;;4920858;29;20469;-70
2022/08/25 10:16:33;;;;;;;0.53;0.53;;;22.90;99.90;;;;;;4913148;29;20481;-70
2022/08/25 10:19:07;;;;;;;1.07;1.07;;;23.00;99.90;;;;;;4901881;29;20472;-70
2022/08/25 10:21:34;;;;;;;1.07;0.53;;;23.10;99.90;;;;;;4911921;29;20805;-71
2022/08/25 10:24:04;;;;;;;0.50;0.50;;;23.20;99.90;;;;;;4927258;29;20467;-71
2022/08/25 10:26:41;;;;;;;0.50;0.50;;;23.30;99.90;;;;;;4929534;29;20474;-71
2022/08/25 10:29:21;;;;;;;0.70;0.70;;;23.40;99.90;;;;;;4918959;29;21073;-70
2022/08/25 10:31:54;;;;;;;0.80;0.70;;;23.50;99.90;;;;;;4910685;29;20506;-71
2022/08/25 10:34:31;;;;;;;1.70;1.00;;;23.60;99.90;;;;;;4916083;29;20483;-72
2022/08/25 10:37:09;;;;;;;0.57;0.57;;;23.60;99.90;;;;;;4918499;29;20472;-71
2022/08/25 10:39:43;;;;;;;0.70;0.70;;;23.80;99.90;;;;;;4915499;29;20458;-70
2022/08/25 10:42:28;;;;;;;0.63;0.63;;;23.80;99.90;;;;;;4920971;29;20488;-71
2022/08/25 10:48:23;;;;;;;0.60;0.60;;;24.10;99.90;;;;;;4919174;29;20564;-71
2022/08/25 10:50:56;;;;;;;0.53;0.53;;;24.30;99.90;;;;;;4907963;29;20489;-71
2022/08/25 10:53:27;;;;;;;0.50;0.50;;;24.40;99.90;;;;;;4921479;29;20517;-70
2022/08/25 10:56:07;;;;;;;0.47;0.47;;;24.40;99.90;;;;;;4933006;29;20482;-69
2022/08/25 10:58:50;;;;;;;0.30;0.30;;;24.50;99.90;;;;;;4914269;29;20564;-70
2022/08/25 11:01:26;;;;;;;0.40;0.40;;;24.60;99.90;;;;;;4920377;29;20874;-70
2022/08/25 11:03:59;;;;;;;0.50;0.50;;;24.80;99.90;;;;;;4928329;29;20584;-70
2022/08/25 11:06:35;;;;;;;0.70;0.70;;;24.90;99.90;;;;;;4907177;29;20474;-69
2022/08/25 11:09:07;;;;;;;0.80;0.80;;;25.00;99.90;;;;;;4919735;29;20997;-70
2022/08/25 11:11:41;;;;;;;1.07;1.07;;;25.00;99.90;;;;;;4921390;29;20934;-71
2022/08/25 11:14:15;;;;;;;0.20;0.20;;;25.10;99.90;;;;;;4929235;29;20471;-70
2022/08/25 11:16:48;;;;;;;5.00;0.60;;;25.30;99.90;;;;;;4915228;29;20467;-70
2022/08/25 11:19:19;;;;;;;0.93;0.90;;;25.40;99.90;;;;;;4930201;29;20461;-70
2022/08/25 11:21:52;;;;;;;0.67;0.63;;;25.60;99.90;;;;;;4912248;29;20490;-69
2022/08/25 11:24:32;;;;;;;0.40;0.40;;;25.70;99.90;;;;;;4913515;29;20475;-70
2022/08/25 11:27:03;;;;;;;0.63;0.63;;;25.90;99.90;;;;;;4909020;29;20809;-70
2022/08/25 11:29:35;;;;;;;0.50;0.50;;;25.90;99.90;;;;;;4931262;29;20494;-69
2022/08/25 11:32:03;;;;;;;0.77;0.77;;;25.90;99.90;;;;;;4917624;29;20475;-70
2022/08/25 11:34:33;;;;;;;0.67;0.67;;;26.00;99.90;;;;;;4932248;29;20469;-70
2022/08/25 11:37:06;;;;;;;1.30;1.03;;;26.00;99.90;;;;;;4911939;29;20478;-70
2022/08/25 11:40:03;;;;;;;0.50;0.47;;;26.00;99.90;;;;;;4924258;29;20486;-70
2022/08/25 11:42:44;;;;;;;0.60;0.60;;;26.10;99.90;;;;;;4916547;29;20884;-69
2022/08/25 11:45:23;;;;;;;1.00;1.00;;;26.20;99.90;;;;;;4910452;29;21000;-70
2022/08/25 11:48:05;;;;;;;0.57;0.57;;;26.30;99.90;;;;;;4915696;29;20474;-70
2022/08/25 11:50:34;;;;;;;0.30;0.30;;;26.30;99.90;;;;;;4915732;29;20467;-70
2022/08/25 11:53:19;;;;;;;0.50;0.50;;;26.20;99.90;;;;;;4925326;29;20477;-71
2022/08/25 11:55:50;;;;;;;0.70;0.70;;;26.10;99.90;;;;;;4912205;29;20522;-71
2022/08/25 11:58:30;;;;;;;0.70;0.70;;;26.10;99.90;;;;;;4922256;29;20818;-71
2022/08/25 12:00:59;;;;;;;1.20;1.10;;;26.00;99.90;;;;;;4930076;29;20496;-71
2022/08/25 12:03:51;;;;;;;0.73;0.73;;;26.10;99.90;;;;;;4924754;29;20920;-71
2022/08/25 12:06:28;;;;;;;0.80;0.80;;;26.20;99.90;;;;;;4929286;29;20477;-72
2022/08/25 12:09:18;;;;;;;0.80;0.80;;;26.40;99.90;;;;;;4924438;29;20490;-72
2022/08/25 12:11:53;;;;;;;0.90;0.90;;;26.40;99.90;;;;;;4913069;29;20499;-72
2022/08/25 12:14:44;;;;;;;0.80;0.80;;;26.60;99.90;;;;;;4920416;29;20478;-72
2022/08/25 12:17:26;;;;;;;1.40;1.07;;;26.80;99.90;;;;;;4901147;29;20471;-72
2022/08/25 12:19:58;;;;;;;0.60;0.60;;;26.90;99.90;;;;;;4895760;29;20809;-72
2022/08/25 12:22:59;;;;;;;1.03;0.47;;;26.90;99.90;;;;;;4921232;29;20489;-72
2022/08/25 12:25:49;;;;;;;0.80;0.80;;;26.90;99.90;;;;;;4875418;29;20463;-72
2022/08/25 12:28:51;;;;;;;0.73;0.73;;;27.10;99.90;;;;;;4854898;29;20578;-72
2022/08/25 12:31:29;;;;;;;1.73;1.53;;;27.20;99.90;;;;;;4904169;29;20494;-72
2022/08/25 12:34:09;;;;;;;0.40;0.40;;;27.20;99.90;;;;;;4915062;29;20494;-72
2022/08/25 12:36:36;;;;;;;0.60;0.60;;;27.30;99.90;;;;;;4910516;29;20781;-72
2022/08/25 12:39:19;;;;;;;1.17;1.17;;;27.20;99.90;;;;;;4915825;29;20462;-72
2022/08/25 12:41:56;;;;;;;0.43;0.43;;;27.20;99.90;;;;;;4917045;29;20576;-72
2022/08/25 12:44:38;;;;;;;2.40;0.63;;;27.20;99.90;;;;;;4914856;29;20558;-72
2022/08/25 12:47:30;;;;;;;1.00;1.00;;;27.20;99.90;;;;;;4917045;29;20494;-72
2022/08/25 12:50:25;;;;;;;1.07;0.70;;;27.40;99.90;;;;;;4921332;29;20856;-72
2022/08/25 12:52:53;;;;;;;0.70;0.70;;;27.60;99.90;;;;;;4911812;29;20471;-72
2022/08/25 12:55:22;;;;;;;0.67;0.50;;;27.80;99.90;;;;;;4923613;29;20481;-72
2022/08/25 12:57:57;;;;;;;1.37;1.03;;;27.80;99.90;;;;;;4920996;29;20478;-72
2022/08/25 13:00:27;;;;;;;0.77;0.77;;;27.70;99.90;;;;;;4924467;29;20493;-73
2022/08/25 13:03:21;;;;;;;0.60;0.60;;;27.60;99.90;;;;;;4919908;29;20474;-72
2022/08/25 13:06:08;;;;;;;0.73;0.73;;;27.50;99.90;;;;;;4920327;29;20503;-72
2022/08/25 13:09:07;;;;;;;0.70;0.70;;;27.40;99.90;;;;;;4918388;29;20501;-72
2022/08/25 13:11:42;;;;;;;0.63;0.63;;;27.50;99.90;;;;;;4904120;29;20485;-72
2022/08/25 13:14:18;;;;;;;0.93;0.60;;;27.50;99.90;;;;;;4915631;29;20489;-72
2022/08/25 13:16:53;;;;;;;1.73;0.90;;;27.50;99.90;;;;;;4911354;29;21035;-72
2022/08/25 13:19:23;;;;;;;0.97;0.80;;;27.60;99.90;;;;;;4914419;29;21148;-72
2022/08/25 13:21:50;;;;;;;0.50;0.30;;;27.70;99.90;;;;;;4918082;29;20517;-71
2022/08/25 13:24:22;;;;;;;1.00;1.00;;;27.80;99.90;;;;;;4917791;29;20470;-72
2022/08/25 13:26:53;;;;;;;0.60;0.60;;;27.80;99.90;;;;;;4930874;29;20475;-72
2022/08/25 13:29:23;;;;;;;0.50;0.50;;;27.80;99.90;;;;;;4918169;29;20849;-72
2022/08/25 13:31:53;;;;;;;1.07;0.63;;;27.80;99.90;;;;;;4926256;29;20488;-72
2022/08/25 13:34:24;;;;;;;0.80;0.80;;;27.90;99.90;;;;;;4920339;29;20474;-72
2022/08/25 13:39:44;;;;;;;0.50;0.50;;;28.30;99.90;;;;;;4900141;29;20486;-72
2022/08/25 13:42:14;;;;;;;1.17;0.67;;;28.50;99.90;;;;;;4931228;29;20617;-72
2022/08/25 13:44:42;;;;;;;1.10;0.93;;;28.50;99.90;;;;;;4923157;29;20547;-72
2022/08/25 13:47:11;;;;;;;0.77;0.77;;;28.60;99.90;;;;;;4930541;29;20462;-72
2022/08/25 13:49:42;;;;;;;0.60;0.60;;;28.70;99.90;;;;;;4916162;29;20498;-73
2022/08/25 13:52:17;;;;;;;0.73;0.73;;;28.80;99.90;;;;;;4923261;29;20478;-72
2022/08/25 13:54:45;;;;;;;1.03;0.50;;;28.80;99.90;;;;;;4924649;29;20550;-73
2022/08/25 13:57:15;;;;;;;0.40;0.40;;;28.80;99.90;;;;;;4931102;29;20477;-72
2022/08/25 13:59:44;;;;;;;1.10;1.00;;;28.70;99.90;;;;;;4925288;29;20471;-72
2022/08/25 14:02:12;;;;;;;0.80;0.80;;;28.50;99.90;;;;;;4924185;29;20570;-72
2022/08/25 14:04:49;;;;;;;0.70;0.70;;;28.50;99.90;;;;;;4909744;29;20478;-72
2022/08/25 14:07:26;;;;;;;0.67;0.67;;;28.40;99.90;;;;;;4913265;29;20479;-72
2022/08/25 14:09:55;;;;;;;0.70;0.70;;;28.20;99.90;;;;;;4920835;29;20605;-72
2022/08/25 14:12:35;;;;;;;0.83;0.83;;;28.10;99.90;;;;;;4924481;29;20596;-73
2022/08/25 14:15:09;;;;;;;0.73;0.73;;;28.10;99.90;;;;;;4930336;29;20462;-72
2022/08/25 14:17:39;;;;;;;0.80;0.80;;;28.00;99.90;;;;;;4917509;29;20478;-72
2022/08/25 14:20:18;;;;;;;1.20;1.00;;;28.10;99.90;;;;;;4922757;29;21110;-72
2022/08/25 14:22:45;;;;;;;0.50;0.50;;;28.00;99.90;;;;;;4927131;29;20477;-72
2022/08/25 14:25:12;;;;;;;0.90;0.90;;;27.90;99.90;;;;;;4931186;29;20469;-72
2022/08/25 14:27:42;;;;;;;0.80;0.80;;;27.90;99.90;;;;;;4928011;29;20482;-72
2022/08/25 14:30:10;;;;;;;1.10;1.10;;;27.90;99.90;;;;;;4931019;29;20575;-72
2022/08/25 14:32:37;;;;;;;0.63;0.63;;;27.90;99.90;;;;;;4924137;29;20586;-72
2022/08/25 14:35:04;;;;;;;0.50;0.50;;;28.10;99.90;;;;;;4916277;29;20487;-72
2022/08/25 14:37:32;;;;;;;0.57;0.57;;;28.30;99.90;;;;;;4916980;29;20478;-72
2022/08/25 14:39:59;;;;;;;0.30;0.30;;;28.30;99.90;;;;;;4921250;29;20477;-72
2022/08/25 14:42:25;;;;;;;0.80;0.80;;;28.10;99.90;;;;;;4925285;29;20569;-72
2022/08/25 14:44:52;;;;;;;0.53;0.53;;;27.90;99.90;;;;;;4925347;29;20466;-72
2022/08/25 14:47:20;;;;;;;0.30;0.30;;;27.70;99.90;;;;;;4920413;29;20961;-72
2022/08/25 14:49:48;;;;;;;0.50;0.50;;;27.50;99.90;;;;;;4923673;29;20523;-72
2022/08/25 14:52:20;;;;;;;0.77;0.77;;;27.40;99.90;;;;;;4918503;29;20502;-72
2022/08/25 14:54:48;;;;;;;0.80;0.80;;;27.40;99.90;;;;;;4919714;29;20462;-72
2022/08/25 14:57:15;;;;;;;0.23;0.23;;;27.40;99.90;;;;;;4924279;29;20479;-72
2022/08/25 14:59:41;;;;;;;0.63;0.63;;;27.50;99.90;;;;;;4926182;29;20458;-72
2022/08/25 15:02:08;;;;;;;0.57;0.57;;;27.60;99.90;;;;;;4918072;29;20521;-72
2022/08/25 15:04:36;;;;;;;0.73;0.70;;;27.60;99.90;;;;;;4915160;29;20470;-72
2022/08/25 15:09:06;;;;;;;1.00;1.00;;;27.70;99.90;;;;;;4912521;29;20466;-72
2022/08/25 15:09:50;;;;;;;0.53;0.53;;;27.70;99.90;;;;;;4920655;29;20573;-72
2022/08/25 15:12:17;;;;;;;0.60;0.60;;;27.70;99.90;;;;;;4916354;29;20525;-72
2022/08/25 15:14:43;;;;;;;0.97;0.97;;;27.70;99.90;;;;;;4926644;29;20825;-72
2022/08/25 15:17:11;;;;;;;0.63;0.63;;;27.70;99.90;;;;;;4911385;29;20486;-72
2022/08/25 15:19:38;;;;;;;0.47;0.47;;;27.80;99.90;;;;;;4914608;29;20613;-72
2022/08/25 15:22:04;;;;;;;0.60;0.60;;;27.80;99.90;;;;;;4920038;29;20490;-72
2022/08/25 15:24:31;;;;;;;0.50;0.50;;;27.80;99.90;;;;;;4925739;29;20466;-72
2022/08/25 15:27:01;;;;;;;1.43;0.53;;;27.90;99.90;;;;;;4925871;29;20831;-72
2022/08/25 15:29:30;;;;;;;0.70;0.70;;;27.90;99.90;;;;;;4926184;29;20486;-72
2022/08/25 15:31:58;;;;;;;0.63;0.63;;;28.00;99.90;;;;;;4926156;29;20501;-72
2022/08/25 15:34:25;;;;;;;1.00;1.00;;;28.00;99.90;;;;;;4914421;29;20475;-71
2022/08/25 15:36:52;;;;;;;1.00;1.00;;;28.10;99.90;;;;;;4918483;29;20933;-72
2022/08/25 15:39:19;;;;;;;0.67;0.67;;;28.10;99.90;;;;;;4922032;29;20967;-72
2022/08/25 15:41:47;;;;;;;0.83;0.83;;;28.00;99.90;;;;;;4915327;29;20499;-72
2022/08/25 15:44:15;;;;;;;0.93;0.93;;;28.10;99.90;;;;;;4921495;29;20520;-72
2022/08/25 15:46:42;;;;;;;0.90;0.83;;;28.00;99.90;;;;;;4928538;29;20478;-72
2022/08/25 15:49:09;;;;;;;0.87;0.83;;;28.00;99.90;;;;;;4925096;29;20466;-72
2022/08/25 15:51:36;;;;;;;0.77;0.77;;;28.00;99.90;;;;;;4914462;29;21006;-72
2022/08/25 15:54:03;;;;;;;0.90;0.90;;;28.00;99.90;;;;;;4919558;29;20473;-72
2022/08/25 15:56:30;;;;;;;0.90;0.90;;;28.00;99.90;;;;;;4921793;29;20479;-72
2022/08/25 15:58:57;;;;;;;0.80;0.53;;;28.00;99.90;;;;;;4924897;29;20527;-72
2022/08/25 16:01:28;;;;;;;0.97;0.40;;;28.00;99.90;;;;;;4929932;29;20511;-72
2022/08/25 16:03:55;;;;;;;0.70;0.67;;;27.90;99.90;;;;;;4920236;29;20477;-72
2022/08/25 16:06:25;;;;;;;0.60;0.60;;;27.90;99.90;;;;;;4926620;29;20879;-72
2022/08/25 16:08:52;;;;;;;0.50;0.50;;;27.80;99.90;;;;;;4915892;29;20478;-72
2022/08/25 16:11:21;;;;;;;0.70;0.70;;;27.90;99.90;;;;;;4934935;29;20490;-72
2022/08/25 16:13:49;;;;;;;0.70;0.60;;;27.90;99.90;;;;;;4923024;29;20447;-72
2022/08/25 16:16:16;;;;;;;0.60;0.60;;;27.90;99.90;;;;;;4945003;29;20458;-72
2022/08/25 16:18:45;;;;;;;0.80;0.80;;;27.80;99.90;;;;;;4919265;29;20479;-72
2022/08/25 16:21:14;;;;;;;0.87;0.87;;;27.80;99.90;;;;;;4915173;29;20478;-72
2022/08/25 16:23:41;;;;;;;1.93;1.20;;;27.80;99.90;;;;;;4917438;29;20476;-72
2022/08/25 16:26:10;;;;;;;0.50;0.50;;;27.80;99.90;;;;;;4909570;29;20477;-71
2022/08/25 16:28:37;;;;;;;0.67;0.67;;;27.70;99.90;;;;;;4913998;29;20478;-71
2022/08/25 16:31:04;;;;;;;0.53;0.40;;;27.80;99.90;;;;;;4920534;29;20489;-71
2022/08/25 16:33:32;;;;;;;0.80;0.80;;;27.70;99.90;;;;;;4923177;29;20474;-71
2022/08/25 16:36:06;;;;;;;0.83;0.70;;;27.70;99.90;;;;;;4928043;29;20556;-70
2022/08/25 16:38:33;;;;;;;0.83;0.83;;;27.70;99.90;;;;;;4923967;29;20495;-71
2022/08/25 16:41:00;;;;;;;0.40;0.40;;;27.70;99.90;;;;;;4914924;29;20499;-71
2022/08/25 16:43:27;;;;;;;0.73;0.73;;;27.60;99.90;;;;;;4919637;29;20783;-71
2022/08/25 16:45:58;;;;;;;1.20;1.20;;;27.60;99.90;;;;;;4911402;29;20486;-71
2022/08/25 16:48:25;;;;;;;1.07;0.60;;;27.50;99.90;;;;;;4921444;29;20915;-71
2022/08/25 16:50:51;;;;;;;1.17;0.70;;;27.50;99.90;;;;;;4930015;29;20498;-71
2022/08/25 16:56:05;;;;;;;1.03;0.53;;;27.50;99.90;;;;;;4923471;29;20522;-71
2022/08/25 16:58:33;;;;;;;0.67;0.67;;;27.50;99.90;;;;;;4907119;29;20467;-71
2022/08/25 17:01:05;;;;;;;0.73;0.73;;;27.40;99.90;;;;;;4912840;29;20490;-71
2022/08/25 17:03:33;;;;;;;1.37;0.67;;;27.40;99.90;;;;;;4923548;29;20470;-69
2022/08/25 17:06:00;;;;;;;0.73;0.73;;;27.30;99.90;;;;;;4931483;29;20462;-69
2022/08/25 17:08:28;;;;;;;0.53;0.53;;;27.30;99.90;;;;;;4922561;29;20473;-69
2022/08/25 17:11:03;;;;;;;0.77;0.77;;;27.20;99.90;;;;;;4930849;29;20859;-69
2022/08/25 17:13:30;;;;;;;0.73;0.73;;;27.20;99.90;;;;;;4918050;29;20478;-69
2022/08/25 17:15:57;;;;;;;0.50;0.50;;;27.10;99.90;;;;;;4923912;29;20557;-69
2022/08/25 17:18:23;;;;;;;0.77;0.77;;;27.10;99.90;;;;;;4925461;29;20916;-69
2022/08/25 17:20:58;;;;;;;0.60;0.60;;;27.00;99.90;;;;;;4935560;29;20478;-69
2022/08/25 17:23:24;;;;;;;0.90;0.90;;;27.00;99.90;;;;;;4924143;29;20465;-69